Cato Island, Australia
Current Conditions -  °F | °C
As of 6:00 AM on Monday 22 Dec 2014 (Local Time) from YBUD Reporting Station
Clear Clear  
Wind Chill: 68°   Ceiling: Unl
Heat Index: 68°   Visibility: 6mi
Dew Point: 64°   Wind: 6mph
Humidity: 88%   Direction: 170°S
Pressure: 29.97"   Gusts: NA
Location:  23.25°S, 155.53°E
Report Text: YBUD 212000Z AUTO 17005KT 9999 // NCD 20/18 Q1015
Loading
Personal Weather Stations






























Interactive Weather Map New forecast layout! Learn more

10-Day Weather Forecast

Advertisements
Track Severe Weather on mobile